Time;durP1;ratioP1;P1;durP2;ratioP2;P2;SDS_P1;SDS_P2;PMS_P1;PMS_P2;Temp;Humidity;BMP_temperature;BMP_pressure;BME280_temperature;BME280_humidity;BME280_pressure;Samples;Min_cycle;Max_cycle;Signal;HPM_P1;HPM_P2
2022/04/09 00:07:59;;;;;;;2.40;0.82;;;;;;;0.62;100.00;99125.47;20774655;28;20053;-72
2022/04/09 00:18:00;;;;;;;2.63;1.00;;;;;;;0.72;100.00;99142.72;20772542;28;20046;-71
2022/04/09 00:28:02;;;;;;;2.42;1.00;;;;;;;0.78;100.00;99172.78;20772692;28;20103;-72
2022/04/09 00:38:04;;;;;;;2.78;1.00;;;;;;;0.72;100.00;99208.81;20776854;28;20054;-72
2022/04/09 00:48:07;;;;;;;2.15;1.00;;;;;;;0.77;100.00;99256.09;20789492;28;20492;-72
2022/04/09 00:58:16;;;;;;;2.13;0.83;;;;;;;0.83;100.00;99293.91;20791432;28;20123;-73
2022/04/09 01:08:18;;;;;;;2.05;0.85;;;;;;;0.84;100.00;99322.25;20791040;28;20054;-73
2022/04/09 01:18:20;;;;;;;6.82;1.70;;;;;;;0.94;100.00;99354.94;20782731;28;20115;-73
2022/04/09 01:28:21;;;;;;;4.53;1.45;;;;;;;0.98;100.00;99391.91;20785895;28;20050;-72
2022/04/09 01:38:23;;;;;;;7.82;2.30;;;;;;;1.07;100.00;99422.91;20783425;28;20042;-73
2022/04/09 01:48:24;;;;;;;3.67;1.63;;;;;;;1.11;100.00;99440.13;20782844;28;20053;-73
2022/04/09 01:58:26;;;;;;;4.32;1.52;;;;;;;1.08;100.00;99481.34;20782985;28;20542;-72
2022/04/09 02:08:27;;;;;;;4.82;1.70;;;;;;;1.06;100.00;99515.69;20782792;28;20495;-74
2022/04/09 02:18:29;;;;;;;5.15;2.20;;;;;;;0.99;100.00;99537.97;20780758;28;20042;-73
2022/04/09 02:28:32;;;;;;;6.90;2.88;;;;;;;0.97;100.00;99570.59;20780557;28;20418;-73
2022/04/09 02:38:34;;;;;;;9.38;4.70;;;;;;;1.00;100.00;99602.41;20778246;28;20054;-73
2022/04/09 02:48:35;;;;;;;11.57;4.80;;;;;;;1.14;100.00;99622.31;20776151;28;20049;-72
2022/04/09 02:58:36;;;;;;;15.68;6.45;;;;;;;1.15;100.00;99645.53;20777816;28;20057;-73
2022/04/09 03:08:38;;;;;;;15.45;7.30;;;;;;;1.14;100.00;99671.28;20776328;28;20101;-71
2022/04/09 03:18:39;;;;;;;16.75;7.20;;;;;;;1.08;100.00;99697.88;20776010;28;20111;-72
2022/04/09 03:28:41;;;;;;;19.23;6.63;;;;;;;1.05;100.00;99721.03;20776248;28;20042;-73
2022/04/09 03:38:43;;;;;;;16.90;7.20;;;;;;;0.95;100.00;99750.13;20768140;28;20566;-73
2022/04/09 03:48:45;;;;;;;17.80;7.72;;;;;;;0.81;100.00;99756.81;20768444;28;20050;-71
2022/04/09 03:58:48;;;;;;;18.20;8.77;;;;;;;0.64;100.00;99774.63;20764554;28;20054;-71
2022/04/09 04:08:50;;;;;;;23.35;9.65;;;;;;;0.55;100.00;99793.38;20770624;28;20148;-72
2022/04/09 04:18:51;;;;;;;26.40;11.98;;;;;;;0.58;100.00;99826.06;20789314;28;20081;-72
2022/04/09 04:28:53;;;;;;;29.23;12.07;;;;;;;0.50;100.00;99851.69;20788937;28;20053;-71
2022/04/09 04:38:54;;;;;;;37.88;15.40;;;;;;;0.53;100.00;99877.50;20784378;28;20077;-72
2022/04/09 04:48:56;;;;;;;36.13;14.57;;;;;;;0.49;100.00;99886.03;20785061;28;20077;-72
2022/04/09 04:58:57;;;;;;;37.65;15.27;;;;;;;0.61;100.00;99911.09;20786648;28;20052;-73
2022/04/09 05:08:59;;;;;;;46.45;17.52;;;;;;;0.67;100.00;99935.28;20782682;28;20045;-70
2022/04/09 05:19:01;;;;;;;43.40;17.90;;;;;;;0.72;100.00;99964.56;20784574;28;20053;-70
2022/04/09 05:29:02;;;;;;;46.28;16.25;;;;;;;0.79;100.00;99991.28;20783611;28;20053;-71
2022/04/09 05:39:04;;;;;;;46.00;18.70;;;;;;;0.86;100.00;99999.97;20782933;28;20045;-71
2022/04/09 05:49:05;;;;;;;57.80;20.80;;;;;;;1.05;100.00;100009.75;20784584;28;20050;-74
2022/04/09 05:59:07;;;;;;;63.17;22.05;;;;;;;1.23;100.00;100022.09;20784004;28;20050;-73
2022/04/09 06:09:21;;;;;;;62.20;22.27;;;;;;;1.41;100.00;100039.56;20782243;28;20107;-71
2022/04/09 06:19:22;;;;;;;63.75;22.58;;;;;;;1.60;100.00;100067.38;20783658;28;20053;-72
2022/04/09 06:29:24;;;;;;;73.68;25.80;;;;;;;1.87;100.00;100085.00;20779722;28;20096;-71
2022/04/09 06:39:26;;;;;;;67.85;25.15;;;;;;;2.03;100.00;100107.59;20777417;28;20495;-73
2022/04/09 06:49:28;;;;;;;82.15;28.42;;;;;;;2.50;100.00;100111.66;20778108;28;20069;-71
2022/04/09 06:59:29;;;;;;;59.58;26.35;;;;;;;2.58;100.00;100120.34;20784207;28;20426;-70
2022/04/09 07:09:31;;;;;;;62.78;26.98;;;;;;;2.85;100.00;100126.69;20769663;28;20487;-71
2022/04/09 07:19:32;;;;;;;50.05;23.35;;;;;;;2.91;100.00;100126.75;20757645;28;20045;-69
2022/04/09 07:29:33;;;;;;;50.45;20.88;;;;;;;2.99;100.00;100145.81;20744064;28;20053;-70
2022/04/09 07:39:37;;;;;;;39.40;19.42;;;;;;;3.15;100.00;100152.88;20751205;28;20526;-70
2022/04/09 07:49:39;;;;;;;33.08;16.33;;;;;;;3.31;100.00;100159.94;20790407;28;20104;-69
2022/04/09 07:59:40;;;;;;;34.38;17.30;;;;;;;3.83;100.00;100170.75;20780290;28;20045;-68
2022/04/09 08:09:44;;;;;;;32.80;16.20;;;;;;;4.37;100.00;100178.91;20782833;28;20096;-68
2022/04/09 08:19:45;;;;;;;27.55;12.05;;;;;;;4.59;100.00;100190.22;20780196;28;20056;-70
2022/04/09 08:29:47;;;;;;;23.40;10.90;;;;;;;4.41;100.00;100175.47;20777838;28;20443;-71
2022/04/09 08:39:50;;;;;;;19.67;9.85;;;;;;;4.70;100.00;100177.34;20774055;28;20046;-68
2022/04/09 08:49:52;;;;;;;20.75;7.70;;;;;;;4.77;100.00;100179.09;20781184;28;20103;-69
2022/04/09 08:59:55;;;;;;;16.25;6.43;;;;;;;4.82;100.00;100192.94;20773366;28;20045;-69
2022/04/09 09:10:16;;;;;;;15.68;5.63;;;;;;;5.13;97.35;100205.19;20780239;28;20053;-69
2022/04/09 09:20:18;;;;;;;12.32;5.05;;;;;;;5.45;94.26;100199.19;20777639;28;20072;-68
2022/04/09 09:30:20;;;;;;;16.33;6.18;;;;;;;6.01;90.30;100195.78;20772404;28;20045;-66
2022/04/09 09:40:32;;;;;;;16.00;6.03;;;;;;;5.82;89.44;100223.47;20775798;28;20049;-67
2022/04/09 09:50:41;;;;;;;21.67;5.03;;;;;;;6.30;86.32;100223.50;20776151;28;20521;-67
2022/04/09 10:00:43;;;;;;;15.93;4.72;;;;;;;6.36;83.12;100221.75;20767588;28;20097;-67
2022/04/09 10:10:48;;;;;;;13.07;4.15;;;;;;;6.63;80.58;100232.97;20773266;28;20578;-67
2022/04/09 10:20:53;;;;;;;10.57;3.28;;;;;;;6.89;74.49;100248.50;20766323;28;20049;-67
2022/04/09 10:30:54;;;;;;;9.35;2.88;;;;;;;7.06;70.38;100251.06;20773212;28;20042;-67
2022/04/09 10:41:01;;;;;;;14.40;3.30;;;;;;;7.49;73.44;100248.25;20772122;28;20080;-68
2022/04/09 10:51:08;;;;;;;10.18;2.83;;;;;;;7.30;66.95;100240.53;20765438;28;20049;-67
2022/04/09 11:01:51;;;;;;;13.63;3.78;;;;;;;7.75;69.52;100242.88;20763909;28;20037;-66
2022/04/09 11:12:02;;;;;;;10.10;2.50;;;;;;;7.29;65.85;100251.84;20762231;28;20061;-65
2022/04/09 11:22:04;;;;;;;9.98;2.55;;;;;;;7.81;64.68;100242.81;20766107;28;20542;-67
2022/04/09 11:32:06;;;;;;;11.30;2.22;;;;;;;8.09;59.52;100238.28;20761414;28;20065;-67
2022/04/09 11:42:11;;;;;;;7.75;2.28;;;;;;;8.35;59.89;100246.75;20765982;28;20131;-66
2022/04/09 11:52:33;;;;;;;6.32;2.13;;;;;;;8.85;56.71;100240.16;20767035;28;20112;-68
2022/04/09 12:02:36;;;;;;;7.78;2.03;;;;;;;9.35;54.25;100230.88;20765198;28;20461;-67
2022/04/09 12:12:40;;;;;;;8.25;1.77;;;;;;;9.21;53.42;100232.78;20767620;28;20054;-66
2022/04/09 12:22:42;;;;;;;9.18;2.20;;;;;;;8.89;59.34;100230.56;20765855;28;20077;-66
2022/04/09 12:32:45;;;;;;;10.40;1.70;;;;;;;9.29;50.57;100217.84;20768413;28;20056;-66
2022/04/09 12:42:47;;;;;;;11.20;2.10;;;;;;;9.60;50.61;100227.91;20778382;28;20046;-67
2022/04/09 12:52:49;;;;;;;8.98;2.17;;;;;;;8.66;53.90;100230.81;20778444;28;20058;-65
2022/04/09 13:02:51;;;;;;;10.30;2.22;;;;;;;8.21;54.44;100227.75;20777403;28;20054;-66
2022/04/09 13:12:53;;;;;;;7.68;1.90;;;;;;;8.59;52.96;100210.91;20778193;28;20057;-65
2022/04/09 13:22:54;;;;;;;8.10;1.80;;;;;;;8.64;49.84;100206.50;20774638;28;20060;-65
2022/04/09 13:32:56;;;;;;;6.95;1.63;;;;;;;9.40;48.38;100200.31;20775196;28;20053;-66
2022/04/09 13:42:58;;;;;;;5.85;2.00;;;;;;;9.23;48.21;100189.22;20869743;23;20084;-68
2022/04/09 13:52:59;;;;;;;7.93;1.60;;;;;;;9.22;47.50;100180.50;20766033;28;20486;-69
2022/04/09 14:03:01;;;;;;;6.60;1.60;;;;;;;9.15;46.78;100168.44;20734415;28;20053;-66
2022/04/09 14:13:03;;;;;;;5.82;1.75;;;;;;;9.40;49.81;100171.56;20729827;28;20046;-66
2022/04/09 14:23:05;;;;;;;7.70;1.60;;;;;;;9.61;48.84;100172.97;20733094;28;20522;-67
2022/04/09 14:33:07;;;;;;;8.38;1.90;;;;;;;9.60;49.60;100178.25;20730951;28;20050;-66
2022/04/09 14:43:08;;;;;;;10.45;1.73;;;;;;;9.57;49.75;100170.44;20726302;28;20048;-67
2022/04/09 14:53:10;;;;;;;8.32;1.75;;;;;;;9.10;52.62;100175.47;20729399;28;20058;-66
2022/04/09 15:03:11;;;;;;;9.93;1.40;;;;;;;9.52;46.83;100175.72;20729234;28;20042;-67
2022/04/09 15:13:13;;;;;;;3.05;0.77;;;;;;;9.65;41.43;100179.03;20718602;28;20054;-66
2022/04/09 15:23:15;;;;;;;7.68;1.65;;;;;;;9.78;42.45;100196.25;20728758;28;20062;-69
2022/04/09 15:33:16;;;;;;;4.55;1.05;;;;;;;9.31;39.82;100195.22;20727511;28;20057;-67
2022/04/09 15:43:18;;;;;;;5.80;1.27;;;;;;;9.67;38.40;100192.94;20727994;28;20542;-67
2022/04/09 15:53:20;;;;;;;4.32;1.20;;;;;;;9.51;39.93;100208.84;20725605;28;20058;-67
2022/04/09 16:03:22;;;;;;;3.72;1.20;;;;;;;9.42;41.71;100203.75;20724393;28;20104;-67
2022/04/09 16:13:24;;;;;;;4.97;1.15;;;;;;;9.16;42.30;100204.13;20740038;28;20108;-67
2022/04/09 16:23:26;;;;;;;4.25;1.08;;;;;;;9.39;42.65;100216.88;20742117;28;20046;-68
2022/04/09 16:33:28;;;;;;;4.50;1.23;;;;;;;8.93;48.28;100240.97;20741492;28;20060;-68
2022/04/09 16:43:29;;;;;;;5.55;1.40;;;;;;;8.87;48.06;100237.56;20741296;28;20462;-68
2022/04/09 16:53:31;;;;;;;8.35;1.80;;;;;;;8.88;49.36;100255.81;20741028;28;20462;-68
2022/04/09 17:03:32;;;;;;;6.82;1.75;;;;;;;8.57;51.17;100262.22;20739289;28;20042;-68
2022/04/09 17:13:36;;;;;;;4.07;1.10;;;;;;;8.34;52.72;100268.50;20738189;28;20107;-68
2022/04/09 17:23:37;;;;;;;5.45;1.13;;;;;;;8.26;53.88;100287.69;20736914;28;20045;-68
2022/04/09 17:33:39;;;;;;;2.45;0.90;;;;;;;8.04;52.87;100292.19;20737171;28;20058;-68
2022/04/09 17:43:40;;;;;;;4.47;1.50;;;;;;;7.69;56.71;100301.97;20736182;28;20054;-68
2022/04/09 17:53:42;;;;;;;5.60;1.88;;;;;;;7.49;58.99;100313.38;20735232;28;20060;-69
2022/04/09 18:03:43;;;;;;;5.65;1.60;;;;;;;7.40;59.81;100325.56;20734105;28;20041;-68
2022/04/09 18:13:45;;;;;;;4.07;1.30;;;;;;;7.28;62.12;100345.56;20732841;28;20068;-67
2022/04/09 18:23:46;;;;;;;5.22;1.55;;;;;;;7.12;63.14;100366.44;20732566;28;20046;-67
2022/04/09 18:33:49;;;;;;;5.10;1.30;;;;;;;6.98;64.01;100373.41;20732049;28;20707;-67
2022/04/09 18:43:51;;;;;;;6.53;1.85;;;;;;;6.85;65.25;100388.22;20731543;28;20042;-67
2022/04/09 18:53:53;;;;;;;6.18;1.48;;;;;;;6.62;66.88;100405.56;20727233;28;20062;-67
2022/04/09 19:03:55;;;;;;;5.63;1.30;;;;;;;6.43;67.85;100430.69;20729521;28;20054;-67
2022/04/09 19:13:58;;;;;;;3.85;1.30;;;;;;;6.16;69.46;100452.28;20729951;28;20057;-67
2022/04/09 19:23:59;;;;;;;4.72;1.20;;;;;;;5.98;70.65;100447.00;20729360;28;20442;-67
2022/04/09 19:34:02;;;;;;;6.38;1.58;;;;;;;5.98;71.52;100449.59;20727990;28;20047;-67
2022/04/09 19:44:04;;;;;;;6.68;1.77;;;;;;;6.14;70.38;100451.41;20848104;23;20038;-71
2022/04/09 19:54:05;;;;;;;7.35;1.80;;;;;;;6.11;72.66;100462.66;20848353;28;20057;-72
2022/04/09 20:04:07;;;;;;;7.63;1.70;;;;;;;6.13;73.20;100480.84;20794746;28;20796;-69
2022/04/09 20:14:10;;;;;;;6.53;1.73;;;;;;;6.21;73.32;100479.16;20798169;28;20099;-69
2022/04/09 20:24:14;;;;;;;4.25;1.50;;;;;;;6.11;74.46;100485.19;20795272;28;20052;-69
2022/04/09 20:34:15;;;;;;;8.80;1.55;;;;;;;5.98;75.92;100504.19;20792200;28;20058;-69
2022/04/09 20:44:18;;;;;;;4.90;1.63;;;;;;;5.85;77.52;100513.63;20805254;28;20092;-68
2022/04/09 20:54:19;;;;;;;8.48;2.00;;;;;;;5.68;79.75;100526.50;20822377;28;20058;-68
2022/04/09 21:04:20;;;;;;;7.72;1.65;;;;;;;5.48;79.99;100525.53;20783297;28;20049;-67
2022/04/09 21:14:22;;;;;;;6.28;2.42;;;;;;;5.35;81.52;100545.31;20775824;28;20049;-67
2022/04/09 21:24:23;;;;;;;5.75;2.15;;;;;;;5.20;83.14;100550.41;20773917;28;20503;-68
2022/04/09 21:34:25;;;;;;;7.60;2.45;;;;;;;5.19;82.73;100567.69;20784839;28;20088;-70
2022/04/09 21:44:27;;;;;;;8.20;2.38;;;;;;;5.23;82.15;100582.44;20777260;28;20084;-67
2022/04/09 21:54:29;;;;;;;8.13;2.15;;;;;;;5.27;80.62;100596.31;20776765;28;20056;-67
2022/04/09 22:04:30;;;;;;;9.88;2.50;;;;;;;5.33;82.00;100615.41;20776433;28;20042;-66
2022/04/09 22:14:32;;;;;;;6.75;2.20;;;;;;;5.30;80.50;100607.59;20780240;28;20415;-67
2022/04/09 22:24:33;;;;;;;4.68;2.17;;;;;;;5.22;81.41;100623.94;20780678;28;20064;-67
2022/04/09 22:34:35;;;;;;;7.45;2.40;;;;;;;5.18;81.89;100624.81;20779243;28;20042;-67
2022/04/09 22:44:36;;;;;;;8.38;2.30;;;;;;;5.12;82.17;100633.38;20779094;28;20048;-67
2022/04/09 22:54:38;;;;;;;10.85;2.45;;;;;;;4.93;85.48;100647.88;20778891;28;20041;-67
2022/04/09 23:04:40;;;;;;;9.48;2.92;;;;;;;4.83;85.03;100662.47;20776075;28;20092;-66
2022/04/09 23:14:41;;;;;;;8.18;2.65;;;;;;;4.74;84.86;100675.31;20775351;28;20050;-66
2022/04/09 23:24:43;;;;;;;8.23;2.60;;;;;;;4.67;85.11;100681.28;20776935;28;20045;-66
2022/04/09 23:34:44;;;;;;;10.82;2.95;;;;;;;4.51;87.11;100694.94;20776297;28;20058;-66
2022/04/09 23:44:46;;;;;;;6.35;2.97;;;;;;;4.37;89.48;100708.56;20775915;28;20487;-66
2022/04/09 23:54:47;;;;;;;8.98;3.25;;;;;;;4.29;91.07;100715.34;20775177;28;20046;-66
